Time;durP1;ratioP1;P1;durP2;ratioP2;P2;SDS_P1;SDS_P2;PMS_P1;PMS_P2;Temp;Humidity;BMP_temperature;BMP_pressure;BME280_temperature;BME280_humidity;BME280_pressure;Samples;Min_cycle;Max_cycle;Signal;HPM_P1;HPM_P2
2023/05/06 00:01:00;;;;;;;5.13;4.63;;;16.80;98.20;;;;;;5156643;27;20101;-78
2023/05/06 00:03:26;;;;;;;7.50;4.95;;;16.80;98.20;;;;;;5137884;27;20062;-78
2023/05/06 00:05:53;;;;;;;7.72;5.40;;;16.80;98.20;;;;;;5120757;27;20045;-79
2023/05/06 00:08:18;;;;;;;8.20;6.95;;;16.90;98.20;;;;;;5156322;27;20026;-78
2023/05/06 00:10:44;;;;;;;8.05;5.72;;;16.90;98.20;;;;;;5138886;27;20447;-78
2023/05/06 00:13:10;;;;;;;6.88;5.97;;;16.80;98.20;;;;;;5156903;27;20389;-79
2023/05/06 00:15:36;;;;;;;6.97;5.80;;;16.80;98.30;;;;;;5137880;27;20365;-77
2023/05/06 00:18:01;;;;;;;8.20;6.35;;;16.80;98.30;;;;;;5157711;27;20034;-78
2023/05/06 00:20:28;;;;;;;7.00;6.30;;;16.90;98.40;;;;;;5137413;27;20458;-78
2023/05/06 00:22:54;;;;;;;9.38;7.18;;;16.90;98.40;;;;;;5137641;27;20152;-78
2023/05/06 00:25:20;;;;;;;6.20;5.60;;;16.90;98.50;;;;;;5156038;27;20106;-78
2023/05/06 00:27:45;;;;;;;7.43;6.72;;;16.90;98.50;;;;;;5137428;27;20125;-78
2023/05/06 00:30:12;;;;;;;8.13;6.45;;;16.90;98.50;;;;;;5137773;27;20030;-79
2023/05/06 00:32:37;;;;;;;8.90;7.70;;;16.90;98.50;;;;;;5138059;27;20046;-78
2023/05/06 00:35:03;;;;;;;8.27;7.47;;;16.90;98.60;;;;;;5120949;27;20455;-78
2023/05/06 00:37:29;;;;;;;8.48;7.43;;;16.90;98.60;;;;;;5103252;27;20030;-79
2023/05/06 00:39:55;;;;;;;8.95;7.95;;;16.90;98.60;;;;;;5136918;27;20496;-78
2023/05/06 00:42:22;;;;;;;8.90;7.38;;;16.80;98.60;;;;;;5155885;27;20026;-78
2023/05/06 00:44:48;;;;;;;8.95;7.43;;;16.90;98.60;;;;;;5156038;27;20374;-78
2023/05/06 00:47:14;;;;;;;8.70;7.80;;;16.90;98.70;;;;;;5137388;27;20054;-79
2023/05/06 00:49:40;;;;;;;9.50;8.55;;;16.90;98.60;;;;;;5137022;27;20113;-78
2023/05/06 00:52:07;;;;;;;9.88;8.63;;;16.80;98.70;;;;;;5136920;27;20058;-79
2023/05/06 00:54:33;;;;;;;11.05;8.57;;;16.80;98.70;;;;;;5120058;27;20023;-78
2023/05/06 00:56:58;;;;;;;9.35;8.43;;;16.80;98.80;;;;;;5120354;27;20041;-79
2023/05/06 00:59:24;;;;;;;10.27;8.65;;;16.80;98.80;;;;;;5136819;27;20022;-79
2023/05/06 01:01:51;;;;;;;10.82;8.50;;;16.70;98.80;;;;;;5155487;27;20415;-78
2023/05/06 01:04:17;;;;;;;10.95;8.55;;;16.70;98.90;;;;;;5120496;27;20401;-79
2023/05/06 01:07:09;;;;;;;9.40;8.50;;;16.70;98.90;;;;;;5137070;27;20027;-78
2023/05/06 01:10:09;;;;;;;10.30;8.48;;;16.70;99.00;;;;;;5131801;27;20043;-79
2023/05/06 01:12:44;;;;;;;9.73;7.85;;;16.70;99.10;;;;;;5137455;27;20431;-78
2023/05/06 01:15:41;;;;;;;8.05;7.10;;;16.70;99.10;;;;;;5137079;27;20023;-79
2023/05/06 01:18:12;;;;;;;11.60;8.57;;;16.70;99.20;;;;;;5155654;27;20065;-79
2023/05/06 01:20:40;;;;;;;11.88;10.68;;;16.70;99.10;;;;;;5155343;27;20554;-79
2023/05/06 01:23:11;;;;;;;13.07;10.10;;;16.70;99.20;;;;;;5136782;27;20031;-78
2023/05/06 01:25:38;;;;;;;9.80;8.80;;;16.70;99.30;;;;;;5136969;27;20113;-78
2023/05/06 01:28:06;;;;;;;9.02;8.13;;;16.70;99.20;;;;;;5155566;27;20101;-78
2023/05/06 01:30:39;;;;;;;13.05;11.35;;;16.70;99.20;;;;;;5138054;27;20037;-78
2023/05/06 01:33:19;;;;;;;8.77;7.93;;;16.60;99.40;;;;;;5155409;27;20050;-78
2023/05/06 01:36:22;;;;;;;10.95;9.43;;;16.50;99.50;;;;;;5155244;27;20023;-78
2023/05/06 01:38:51;;;;;;;;;;;16.50;99.60;;;;;;5137408;27;20062;-78
2023/05/06 01:41:17;;;;;;;13.88;10.80;;;16.50;99.70;;;;;;5137012;27;19909;-77
2023/05/06 01:43:46;;;;;;;12.30;11.00;;;16.40;99.60;;;;;;5155109;27;20054;-78
2023/05/06 01:46:16;;;;;;;14.43;12.93;;;16.40;99.70;;;;;;5136436;27;20348;-79
2023/05/06 01:48:44;;;;;;;14.00;12.23;;;16.40;99.90;;;;;;5154956;27;20042;-78
2023/05/06 01:51:10;;;;;;;12.80;11.50;;;16.30;99.90;;;;;;5155083;27;20026;-78
2023/05/06 01:53:35;;;;;;;13.00;11.55;;;16.30;99.90;;;;;;5136474;27;20034;-78
2023/05/06 01:56:01;;;;;;;15.32;12.43;;;16.30;99.90;;;;;;5155098;27;20387;-79
2023/05/06 01:58:26;;;;;;;13.07;11.10;;;16.30;99.90;;;;;;5137242;27;20122;-79
2023/05/06 02:00:52;;;;;;;12.43;10.77;;;16.30;99.90;;;;;;5138867;27;20455;-78
2023/05/06 02:03:18;;;;;;;13.07;10.38;;;16.20;99.90;;;;;;5140433;27;20078;-78
2023/05/06 02:05:43;;;;;;;15.50;12.85;;;16.30;99.90;;;;;;5140728;27;20066;-78
2023/05/06 02:08:09;;;;;;;8.32;7.45;;;16.20;99.90;;;;;;5140047;27;20043;-78
2023/05/06 02:10:34;;;;;;;10.82;9.48;;;16.20;99.90;;;;;;5158615;27;20033;-78
2023/05/06 02:13:00;;;;;;;15.50;12.35;;;16.20;99.90;;;;;;5158623;27;20035;-78
2023/05/06 02:15:26;;;;;;;9.45;8.45;;;16.20;99.90;;;;;;5158533;27;20035;-79
2023/05/06 02:17:51;;;;;;;12.85;11.35;;;16.20;99.90;;;;;;5140378;27;20023;-78
2023/05/06 02:20:17;;;;;;;8.93;7.70;;;16.20;99.90;;;;;;5158454;27;20033;-78
2023/05/06 02:22:43;;;;;;;13.20;11.20;;;16.20;99.90;;;;;;5140308;27;20101;-78
2023/05/06 02:25:09;;;;;;;11.57;10.32;;;16.20;99.90;;;;;;5123253;27;20145;-78
2023/05/06 02:27:34;;;;;;;10.18;8.95;;;16.20;99.90;;;;;;5158399;27;20034;-79
2023/05/06 02:30:00;;;;;;;10.40;9.30;;;16.20;99.90;;;;;;5158275;27;20031;-78
2023/05/06 02:32:26;;;;;;;11.30;9.80;;;16.30;99.90;;;;;;5158184;27;20110;-79
2023/05/06 02:34:52;;;;;;;14.27;12.75;;;16.20;99.90;;;;;;5157982;27;20392;-78
2023/05/06 02:37:18;;;;;;;8.93;8.02;;;16.30;99.90;;;;;;5139702;27;20034;-79
2023/05/06 02:39:43;;;;;;;12.40;10.52;;;16.20;99.90;;;;;;5140082;27;20067;-79
2023/05/06 02:42:13;;;;;;;12.95;10.13;;;16.20;99.90;;;;;;5158161;27;20069;-79
2023/05/06 02:44:38;;;;;;;10.30;9.20;;;16.20;99.90;;;;;;5139516;27;20022;-78
2023/05/06 02:47:04;;;;;;;11.55;10.35;;;16.30;99.90;;;;;;5139215;27;20522;-78
2023/05/06 02:49:30;;;;;;;11.77;10.40;;;16.30;99.90;;;;;;5157753;27;20031;-78
2023/05/06 02:51:55;;;;;;;12.18;10.48;;;16.30;99.90;;;;;;5139761;27;20023;-79
2023/05/06 02:54:21;;;;;;;12.23;10.23;;;16.20;99.90;;;;;;5139295;27;20046;-79
2023/05/06 02:56:47;;;;;;;9.30;8.45;;;16.20;99.90;;;;;;5139203;27;20035;-79
2023/05/06 02:59:12;;;;;;;10.90;9.07;;;16.20;99.90;;;;;;5105058;27;20056;-79
2023/05/06 03:01:38;;;;;;;12.38;11.07;;;16.20;99.80;;;;;;5157386;27;20053;-79
2023/05/06 03:04:04;;;;;;;12.73;11.02;;;16.20;99.80;;;;;;5157588;27;20037;-79
2023/05/06 03:06:30;;;;;;;11.57;10.38;;;16.20;99.80;;;;;;5122017;27;20415;-80
2023/05/06 03:08:56;;;;;;;11.70;10.50;;;16.20;99.80;;;;;;5157803;27;20375;-79
2023/05/06 03:11:22;;;;;;;13.23;11.40;;;16.20;99.90;;;;;;5157144;27;20423;-79
2023/05/06 03:13:47;;;;;;;11.70;10.50;;;16.10;99.90;;;;;;5157791;27;20031;-79
2023/05/06 03:16:13;;;;;;;12.77;10.98;;;16.10;99.90;;;;;;5139319;27;20027;-79
2023/05/06 03:18:39;;;;;;;12.60;10.65;;;16.20;99.90;;;;;;5139231;27;20110;-79
2023/05/06 03:21:05;;;;;;;13.23;11.82;;;16.20;99.90;;;;;;5157025;27;20378;-79
2023/05/06 03:23:31;;;;;;;10.98;9.82;;;16.20;99.80;;;;;;5104736;27;20019;-78
2023/05/06 03:25:56;;;;;;;12.18;10.82;;;16.20;99.80;;;;;;5138758;27;20539;-79
2023/05/06 03:28:22;;;;;;;11.68;10.48;;;16.20;99.80;;;;;;5138789;27;20034;-79
2023/05/06 03:30:48;;;;;;;12.27;10.68;;;16.20;99.80;;;;;;5138608;27;20019;-78
2023/05/06 03:33:14;;;;;;;9.82;8.80;;;16.20;99.80;;;;;;5139258;27;20447;-79
2023/05/06 03:35:40;;;;;;;11.23;10.05;;;16.20;99.80;;;;;;5121893;27;20390;-79
2023/05/06 03:38:05;;;;;;;12.68;11.35;;;16.20;99.70;;;;;;5138833;27;20503;-78
2023/05/06 03:40:32;;;;;;;8.95;7.72;;;16.20;99.70;;;;;;5156917;27;20412;-78
2023/05/06 03:42:57;;;;;;;11.75;10.55;;;16.20;99.70;;;;;;5157730;27;20022;-79
2023/05/06 03:45:23;;;;;;;10.20;9.05;;;16.20;99.70;;;;;;5138777;27;20075;-78
2023/05/06 03:47:49;;;;;;;13.15;11.75;;;16.10;99.70;;;;;;5138025;27;20399;-78
2023/05/06 03:50:14;;;;;;;9.20;8.15;;;16.20;99.70;;;;;;5121128;27;20057;-78
2023/05/06 03:52:40;;;;;;;11.00;9.05;;;16.20;99.70;;;;;;5138086;27;20073;-79
2023/05/06 03:55:06;;;;;;;8.07;7.22;;;16.20;99.70;;;;;;5156920;27;20071;-78
2023/05/06 03:57:32;;;;;;;10.63;9.45;;;16.20;99.60;;;;;;5120907;27;20030;-78
2023/05/06 03:59:57;;;;;;;12.05;10.57;;;16.20;99.60;;;;;;5156238;27;20394;-78
2023/05/06 04:02:23;;;;;;;11.88;10.68;;;16.20;99.50;;;;;;5138471;27;20477;-79
2023/05/06 04:04:49;;;;;;;13.80;12.20;;;16.20;99.60;;;;;;5156434;27;20367;-79
2023/05/06 04:07:15;;;;;;;15.60;12.38;;;16.20;99.60;;;;;;5138068;27;20037;-79
2023/05/06 04:09:40;;;;;;;11.75;10.48;;;16.10;99.50;;;;;;5137761;27;20084;-78
2023/05/06 04:12:06;;;;;;;8.63;7.57;;;16.10;99.60;;;;;;5138415;27;20066;-78
2023/05/06 04:14:31;;;;;;;11.82;9.98;;;16.20;99.50;;;;;;5120840;27;20027;-78
2023/05/06 04:16:57;;;;;;;12.45;11.13;;;16.20;99.50;;;;;;5156143;27;20030;-78
2023/05/06 04:19:23;;;;;;;12.88;11.40;;;16.20;99.50;;;;;;5138066;27;20033;-79
2023/05/06 04:21:48;;;;;;;13.35;10.60;;;16.20;99.40;;;;;;5156396;27;20064;-79
2023/05/06 04:24:14;;;;;;;13.23;10.68;;;16.10;99.30;;;;;;5137794;27;20050;-78
2023/05/06 04:26:41;;;;;;;13.48;11.43;;;16.10;99.20;;;;;;5155954;27;20022;-79
2023/05/06 04:29:07;;;;;;;13.43;11.80;;;16.10;99.30;;;;;;5137863;27;20031;-78
2023/05/06 04:31:33;;;;;;;13.07;10.10;;;16.10;99.20;;;;;;5155944;27;20038;-79
2023/05/06 04:34:00;;;;;;;12.70;11.27;;;16.10;99.20;;;;;;5155931;27;20023;-78
2023/05/06 04:36:26;;;;;;;14.63;13.05;;;16.10;99.20;;;;;;5137317;27;20045;-78
2023/05/06 04:38:52;;;;;;;14.80;12.05;;;16.00;99.10;;;;;;5137214;27;20105;-79
2023/05/06 04:41:19;;;;;;;16.02;12.57;;;15.90;99.20;;;;;;5138163;27;20030;-78
2023/05/06 04:43:45;;;;;;;12.63;11.05;;;15.90;99.20;;;;;;5155621;27;20023;-79
2023/05/06 04:46:11;;;;;;;17.55;13.85;;;15.90;99.20;;;;;;5137095;27;20419;-78
2023/05/06 04:48:38;;;;;;;16.15;13.70;;;15.90;99.30;;;;;;5137197;27;20107;-78
2023/05/06 04:51:04;;;;;;;15.52;12.30;;;15.80;99.30;;;;;;5155671;27;20026;-78
2023/05/06 04:53:30;;;;;;;14.45;12.32;;;15.80;99.40;;;;;;5137054;27;20038;-78
2023/05/06 04:55:56;;;;;;;16.13;12.65;;;15.80;99.40;;;;;;5137646;27;20026;-78
2023/05/06 04:58:21;;;;;;;15.55;11.23;;;15.90;99.50;;;;;;5155415;27;20023;-78
2023/05/06 05:00:47;;;;;;;13.07;11.50;;;15.90;99.40;;;;;;5137433;27;20370;-78
2023/05/06 05:03:13;;;;;;;13.20;11.80;;;15.80;99.40;;;;;;5120179;27;20027;-78
2023/05/06 05:05:38;;;;;;;29.58;13.30;;;15.80;99.40;;;;;;5103925;27;20037;-78
2023/05/06 05:08:04;;;;;;;14.25;11.77;;;15.80;99.50;;;;;;5120363;27;20352;-78
2023/05/06 05:10:30;;;;;;;15.98;14.07;;;15.80;99.60;;;;;;5137334;27;20027;-78
2023/05/06 05:12:56;;;;;;;13.55;12.15;;;15.80;99.80;;;;;;5136952;27;20058;-79
2023/05/06 05:15:22;;;;;;;18.05;12.55;;;15.60;99.90;;;;;;5155442;27;20022;-79
2023/05/06 05:17:49;;;;;;;14.80;12.30;;;15.60;99.90;;;;;;5137030;27;20095;-78
2023/05/06 05:20:15;;;;;;;19.90;11.43;;;15.70;99.90;;;;;;5120454;27;20462;-78
2023/05/06 05:22:41;;;;;;;15.25;11.27;;;15.60;99.90;;;;;;5155325;27;20106;-78
2023/05/06 05:25:07;;;;;;;12.80;11.50;;;15.60;99.90;;;;;;5155261;27;20475;-78
2023/05/06 05:27:32;;;;;;;10.20;9.20;;;15.50;99.90;;;;;;5137077;27;20113;-78
2023/05/06 05:29:58;;;;;;;11.20;10.10;;;15.60;99.90;;;;;;5120356;27;20416;-78
2023/05/06 05:32:25;;;;;;;19.23;12.48;;;15.60;99.90;;;;;;5136633;27;20463;-78
2023/05/06 05:34:51;;;;;;;17.02;12.55;;;15.60;99.90;;;;;;5137862;27;20027;-78
2023/05/06 05:37:17;;;;;;;23.10;12.45;;;15.60;99.90;;;;;;5158986;27;20031;-79
2023/05/06 05:39:43;;;;;;;18.60;13.82;;;15.60;99.90;;;;;;5140651;27;20070;-78
2023/05/06 05:42:09;;;;;;;28.67;16.80;;;15.60;99.90;;;;;;5140317;27;20386;-79
2023/05/06 05:44:34;;;;;;;18.17;14.70;;;15.50;99.90;;;;;;5140719;27;20031;-79
2023/05/06 05:47:01;;;;;;;13.77;12.13;;;15.30;99.90;;;;;;5158951;27;20039;-78
2023/05/06 05:49:26;;;;;;;26.83;16.00;;;15.30;99.90;;;;;;5123458;27;20441;-79
2023/05/06 05:51:52;;;;;;;17.70;15.32;;;15.20;99.90;;;;;;5159305;27;20042;-78
2023/05/06 05:54:18;;;;;;;16.35;14.57;;;15.10;99.90;;;;;;5140489;27;20382;-79
2023/05/06 05:56:43;;;;;;;15.98;13.70;;;15.20;99.90;;;;;;5123410;27;20531;-78
2023/05/06 05:59:09;;;;;;;17.08;13.52;;;15.20;99.90;;;;;;5140364;27;20034;-79
2023/05/06 06:01:35;;;;;;;15.57;12.30;;;15.30;99.90;;;;;;5123362;27;20424;-78
2023/05/06 06:04:00;;;;;;;14.25;12.43;;;15.30;99.90;;;;;;5158877;27;20072;-78
2023/05/06 06:06:26;;;;;;;16.15;13.18;;;15.50;99.90;;;;;;5158778;27;20444;-79
2023/05/06 06:08:52;;;;;;;12.80;11.55;;;15.50;99.90;;;;;;5158899;27;20501;-79
2023/05/06 06:11:17;;;;;;;12.93;11.73;;;15.60;99.90;;;;;;5123122;27;20149;-79
2023/05/06 06:13:43;;;;;;;13.40;12.00;;;15.60;99.90;;;;;;5140783;27;20035;-78
2023/05/06 06:16:10;;;;;;;13.25;11.95;;;15.60;99.90;;;;;;5158563;27;20030;-78
2023/05/06 06:18:35;;;;;;;12.85;10.95;;;15.70;99.90;;;;;;5158499;27;20033;-78
2023/05/06 06:21:01;;;;;;;12.65;11.45;;;15.80;99.90;;;;;;5122614;27;20026;-78
2023/05/06 06:23:26;;;;;;;13.02;11.68;;;15.80;99.90;;;;;;5139767;27;20348;-79
2023/05/06 06:25:52;;;;;;;11.43;10.23;;;15.80;99.90;;;;;;5158356;27;20027;-78
2023/05/06 06:28:18;;;;;;;11.07;9.93;;;15.90;99.90;;;;;;5140090;27;20114;-78
2023/05/06 06:30:43;;;;;;;14.07;11.00;;;16.00;99.90;;;;;;5158288;27;20038;-79
2023/05/06 06:33:09;;;;;;;13.45;12.15;;;16.00;99.90;;;;;;5139833;27;20458;-79
2023/05/06 06:35:35;;;;;;;12.80;10.95;;;16.10;99.90;;;;;;5122815;27;20077;-78
2023/05/06 06:38:01;;;;;;;13.07;11.77;;;16.10;99.90;;;;;;5139904;27;20125;-79
2023/05/06 06:40:27;;;;;;;14.50;13.00;;;16.10;99.90;;;;;;5122595;27;20075;-79
2023/05/06 06:42:53;;;;;;;10.93;9.48;;;16.00;99.90;;;;;;5139443;27;20023;-78
2023/05/06 06:45:19;;;;;;;12.13;10.63;;;15.90;99.90;;;;;;5122290;27;20023;-78
2023/05/06 06:47:45;;;;;;;13.77;10.88;;;15.90;99.90;;;;;;5156784;27;20079;-79
2023/05/06 06:50:11;;;;;;;11.63;10.10;;;16.00;99.90;;;;;;5123074;27;20058;-78
2023/05/06 06:52:36;;;;;;;14.25;12.65;;;16.00;99.90;;;;;;5158053;27;20451;-78
2023/05/06 06:55:02;;;;;;;17.45;13.18;;;16.00;99.90;;;;;;5139477;27;20027;-78
2023/05/06 06:57:28;;;;;;;14.25;12.70;;;15.80;99.90;;;;;;5139166;27;20030;-78
2023/05/06 06:59:54;;;;;;;12.60;11.25;;;15.70;99.90;;;;;;5138977;27;20027;-78
2023/05/06 07:02:20;;;;;;;12.65;11.35;;;15.80;99.90;;;;;;5139067;27;20130;-78
2023/05/06 07:04:46;;;;;;;12.52;11.07;;;15.80;99.90;;;;;;5122230;27;20031;-78
2023/05/06 07:07:11;;;;;;;12.60;11.30;;;15.90;99.90;;;;;;5138900;27;20523;-79
2023/05/06 07:09:38;;;;;;;13.00;11.38;;;15.90;99.90;;;;;;5139597;27;20474;-78
2023/05/06 07:12:07;;;;;;;11.65;10.45;;;15.90;99.90;;;;;;5157442;27;20109;-78
2023/05/06 07:14:33;;;;;;;12.75;11.45;;;16.00;99.90;;;;;;5122878;27;20030;-79
2023/05/06 07:17:01;;;;;;;13.48;12.05;;;16.00;99.90;;;;;;5157352;27;20352;-78
2023/05/06 07:19:28;;;;;;;12.20;10.35;;;16.00;99.90;;;;;;5157183;27;20094;-79
2023/05/06 07:21:54;;;;;;;13.68;12.07;;;16.00;99.90;;;;;;5156975;27;20023;-78
2023/05/06 07:24:19;;;;;;;14.90;13.00;;;16.10;99.90;;;;;;5138867;27;20450;-78
2023/05/06 07:26:46;;;;;;;14.38;12.90;;;16.00;99.90;;;;;;5138765;27;20471;-79
2023/05/06 07:29:12;;;;;;;14.43;12.93;;;16.00;99.90;;;;;;5157017;27;20416;-79
2023/05/06 07:31:38;;;;;;;12.52;11.30;;;15.90;99.90;;;;;;5157577;27;20022;-78
2023/05/06 07:34:03;;;;;;;13.45;11.73;;;16.00;99.90;;;;;;5157007;27;20054;-78
2023/05/06 07:36:34;;;;;;;11.30;10.20;;;16.00;99.90;;;;;;5138320;27;20027;-78
2023/05/06 07:38:59;;;;;;;12.18;10.70;;;16.10;99.90;;;;;;5138988;27;20455;-78
2023/05/06 07:41:25;;;;;;;13.00;11.43;;;16.20;99.90;;;;;;5138517;27;20037;-78
2023/05/06 07:43:51;;;;;;;11.88;10.60;;;16.20;99.90;;;;;;5138233;27;20018;-78
2023/05/06 07:46:16;;;;;;;13.13;11.02;;;16.40;99.90;;;;;;5138103;27;20037;-79
2023/05/06 07:48:42;;;;;;;14.23;12.73;;;16.40;99.90;;;;;;5156630;27;20093;-77
2023/05/06 07:51:08;;;;;;;14.38;11.15;;;16.50;99.90;;;;;;5156696;27;20019;-78
2023/05/06 07:53:34;;;;;;;11.73;10.40;;;16.60;99.90;;;;;;5138609;27;20454;-78
2023/05/06 07:56:01;;;;;;;13.15;11.75;;;16.60;99.90;;;;;;5120738;27;20031;-78
2023/05/06 07:58:30;;;;;;;13.30;11.90;;;16.70;99.90;;;;;;5138208;27;20051;-78
2023/05/06 08:00:56;;;;;;;10.48;9.38;;;16.70;99.90;;;;;;5137805;27;20047;-78
2023/05/06 08:03:22;;;;;;;12.25;9.77;;;16.70;99.90;;;;;;5137987;27;20019;-78
2023/05/06 08:05:51;;;;;;;13.00;10.00;;;16.70;99.90;;;;;;5120713;27;20142;-78
2023/05/06 08:08:21;;;;;;;11.82;9.50;;;16.80;99.90;;;;;;5121255;27;20047;-78
2023/05/06 08:10:47;;;;;;;11.68;10.48;;;16.90;99.90;;;;;;5137759;27;20030;-78
2023/05/06 08:13:12;;;;;;;10.75;9.10;;;16.90;99.90;;;;;;5155969;27;20050;-78
2023/05/06 08:15:38;;;;;;;13.93;11.43;;;17.00;99.90;;;;;;5120496;27;20110;-78
2023/05/06 08:18:04;;;;;;;11.75;10.55;;;17.00;99.90;;;;;;5156047;27;20067;-78
2023/05/06 08:20:30;;;;;;;13.38;9.98;;;17.00;99.90;;;;;;5120922;27;20083;-79
2023/05/06 08:22:56;;;;;;;14.82;10.50;;;17.10;99.90;;;;;;5137471;27;20027;-78
2023/05/06 08:25:22;;;;;;;13.13;11.48;;;17.10;99.90;;;;;;5137862;27;20027;-78
2023/05/06 08:27:47;;;;;;;12.05;10.75;;;17.20;99.90;;;;;;5155994;27;20489;-78
2023/05/06 08:30:14;;;;;;;13.73;11.38;;;17.20;99.90;;;;;;5137799;27;20027;-78
2023/05/06 08:32:39;;;;;;;13.00;10.55;;;17.20;99.90;;;;;;5137900;27;20082;-78
2023/05/06 08:35:06;;;;;;;11.38;10.02;;;17.30;99.90;;;;;;5155783;27;20421;-78
2023/05/06 08:37:32;;;;;;;14.27;11.82;;;17.30;99.90;;;;;;5155401;27;20030;-79
2023/05/06 08:39:57;;;;;;;11.90;10.40;;;17.40;99.90;;;;;;5119808;27;20033;-78
2023/05/06 08:42:25;;;;;;;12.05;10.07;;;17.40;99.90;;;;;;5155810;27;20063;-78
2023/05/06 08:44:51;;;;;;;13.18;11.27;;;17.40;99.90;;;;;;5137431;27;20035;-78
2023/05/06 08:47:18;;;;;;;14.90;12.75;;;17.60;99.90;;;;;;5136822;27;20042;-78
2023/05/06 08:49:44;;;;;;;16.33;12.57;;;17.60;99.90;;;;;;5103984;27;20095;-78
2023/05/06 08:52:10;;;;;;;18.20;12.98;;;17.60;99.90;;;;;;5137307;27;20471;-78
2023/05/06 08:54:37;;;;;;;14.30;12.35;;;17.60;99.90;;;;;;5120091;27;20133;-78
2023/05/06 08:57:07;;;;;;;14.82;12.27;;;17.60;99.90;;;;;;5155765;27;20037;-77
2023/05/06 08:59:33;;;;;;;13.27;10.23;;;17.70;99.90;;;;;;5120838;27;20434;-78
2023/05/06 09:02:03;;;;;;;13.35;10.65;;;17.70;99.90;;;;;;5119811;27;20402;-78
2023/05/06 09:04:29;;;;;;;13.45;9.80;;;17.90;99.90;;;;;;5155329;27;20062;-77
2023/05/06 09:06:57;;;;;;;13.57;10.38;;;18.00;99.90;;;;;;5136668;27;20035;-78
2023/05/06 09:09:23;;;;;;;14.68;10.73;;;18.10;99.90;;;;;;5154809;27;20034;-78
2023/05/06 09:11:52;;;;;;;14.25;11.80;;;18.10;99.90;;;;;;5136490;27;20050;-78
2023/05/06 09:14:20;;;;;;;14.80;11.52;;;18.20;99.90;;;;;;5137302;27;20083;-78
2023/05/06 09:16:54;;;;;;;15.93;12.48;;;18.30;99.90;;;;;;5137183;27;20027;-78
2023/05/06 09:19:21;;;;;;;15.50;10.85;;;18.30;99.90;;;;;;5136512;27;20075;-83
2023/05/06 09:21:49;;;;;;;13.82;11.10;;;18.40;99.90;;;;;;5155331;27;20112;-83
2023/05/06 09:24:15;;;;;;;13.85;10.95;;;18.40;99.90;;;;;;5136988;27;20083;-78
2023/05/06 09:26:43;;;;;;;15.27;10.00;;;18.50;99.90;;;;;;5136852;27;20123;-78
2023/05/06 09:29:09;;;;;;;13.88;10.63;;;18.60;99.90;;;;;;5102746;27;20478;-78
2023/05/06 09:31:46;;;;;;;15.57;10.55;;;18.70;99.90;;;;;;5136470;27;20031;-78
2023/05/06 09:34:13;;;;;;;14.85;10.65;;;19.00;99.90;;;;;;5155391;27;20098;-78
2023/05/06 09:36:39;;;;;;;13.38;10.15;;;19.20;99.60;;;;;;5136240;27;20031;-78
2023/05/06 09:39:06;;;;;;;15.50;9.88;;;19.50;99.10;;;;;;5137132;27;20027;-78
2023/05/06 09:41:32;;;;;;;14.55;9.60;;;19.60;98.90;;;;;;5136864;27;20113;-78
2023/05/06 09:43:58;;;;;;;12.57;8.40;;;19.80;97.80;;;;;;5119532;27;20045;-78
2023/05/06 09:46:28;;;;;;;15.20;8.23;;;19.80;97.20;;;;;;5155219;27;20022;-78
2023/05/06 09:48:55;;;;;;;13.48;8.13;;;19.90;96.90;;;;;;5154843;27;20078;-79
2023/05/06 09:51:21;;;;;;;13.13;8.60;;;20.00;96.90;;;;;;5136272;27;20046;-78
2023/05/06 09:53:47;;;;;;;11.20;8.27;;;19.90;96.60;;;;;;5156512;27;20386;-79
2023/05/06 09:56:14;;;;;;;13.27;8.25;;;19.90;96.50;;;;;;5157854;27;20026;-78
2023/05/06 09:58:40;;;;;;;11.07;8.07;;;20.00;96.40;;;;;;5137664;27;20027;-79
2023/05/06 10:01:07;;;;;;;9.77;6.28;;;20.00;96.40;;;;;;5138364;27;20027;-79
2023/05/06 10:03:34;;;;;;;10.32;6.93;;;20.10;96.10;;;;;;5156289;27;20071;-78
2023/05/06 10:06:03;;;;;;;10.32;7.80;;;20.10;95.50;;;;;;5155311;27;20068;-79
2023/05/06 10:08:32;;;;;;;9.88;8.63;;;20.20;95.60;;;;;;5136120;27;20215;-79
2023/05/06 10:10:59;;;;;;;13.13;8.32;;;20.40;95.80;;;;;;5154863;27;20030;-78
2023/05/06 10:13:26;;;;;;;12.23;8.73;;;20.50;95.80;;;;;;5136223;27;20023;-78
2023/05/06 10:15:52;;;;;;;11.93;8.55;;;20.80;95.70;;;;;;5136166;27;20031;-78
2023/05/06 10:18:20;;;;;;;10.30;7.85;;;21.00;95.30;;;;;;5154728;27;20103;-78
2023/05/06 10:20:47;;;;;;;9.02;6.53;;;21.10;94.50;;;;;;5154285;27;20038;-78
2023/05/06 10:23:16;;;;;;;10.63;7.28;;;21.10;94.40;;;;;;5138564;27;20029;-78
2023/05/06 10:25:43;;;;;;;10.48;7.10;;;21.10;94.20;;;;;;5158164;27;20052;-78
2023/05/06 10:28:10;;;;;;;11.75;7.82;;;21.10;94.10;;;;;;5158199;27;20035;-78
2023/05/06 10:30:38;;;;;;;11.43;6.78;;;20.90;94.00;;;;;;5158181;27;20053;-78
2023/05/06 10:33:09;;;;;;;10.82;8.05;;;20.80;94.20;;;;;;5139794;27;20018;-78
2023/05/06 10:35:46;;;;;;;8.82;6.03;;;20.70;93.90;;;;;;5157934;27;20105;-78
2023/05/06 10:38:35;;;;;;;9.75;6.75;;;20.60;93.90;;;;;;5158352;27;20101;-78
2023/05/06 10:41:02;;;;;;;6.40;5.30;;;20.60;94.00;;;;;;5158179;27;20050;-79
2023/05/06 10:43:30;;;;;;;8.98;5.05;;;20.70;93.20;;;;;;5158028;27;20033;-78
2023/05/06 10:46:01;;;;;;;5.47;4.03;;;20.90;92.20;;;;;;5157701;27;20026;-79
2023/05/06 10:48:28;;;;;;;7.23;3.93;;;21.00;91.80;;;;;;5135639;27;20059;-78
2023/05/06 10:51:14;;;;;;;6.70;3.83;;;21.10;91.90;;;;;;5135375;27;20027;-78
2023/05/06 10:53:57;;;;;;;5.55;4.15;;;21.10;91.00;;;;;;5136970;27;20115;-79
2023/05/06 10:56:23;;;;;;;9.18;5.20;;;21.10;91.20;;;;;;5137099;27;20019;-78
2023/05/06 10:58:49;;;;;;;6.28;4.53;;;21.10;91.40;;;;;;5136679;27;20554;-78
2023/05/06 11:01:15;;;;;;;9.13;5.47;;;21.10;91.60;;;;;;5136073;27;20144;-78
2023/05/06 11:03:43;;;;;;;7.32;4.63;;;21.20;91.40;;;;;;5135392;27;20076;-77
2023/05/06 11:06:09;;;;;;;7.75;4.75;;;21.30;91.40;;;;;;5135298;27;20521;-77
2023/05/06 11:08:35;;;;;;;7.05;4.15;;;21.40;90.70;;;;;;5137202;27;20035;-76
2023/05/06 11:11:21;;;;;;;6.78;3.90;;;21.40;90.90;;;;;;5136967;27;20034;-77
2023/05/06 11:13:52;;;;;;;7.88;4.05;;;21.50;90.20;;;;;;5120936;27;20031;-77
2023/05/06 11:16:50;;;;;;;6.25;3.30;;;21.50;89.50;;;;;;5136994;27;20030;-77
2023/05/06 11:19:23;;;;;;;4.97;3.67;;;21.50;90.00;;;;;;5118983;27;20122;-77
2023/05/06 11:21:50;;;;;;;7.93;3.25;;;21.40;89.30;;;;;;5135748;27;20470;-78
2023/05/06 11:24:22;;;;;;;6.25;3.55;;;21.40;90.20;;;;;;5135246;27;20035;-77
2023/05/06 11:26:49;;;;;;;6.60;3.95;;;21.40;89.50;;;;;;5136424;27;20034;-77
2023/05/06 11:29:15;;;;;;;4.85;2.95;;;21.50;88.90;;;;;;5136347;27;20058;-77
2023/05/06 11:31:42;;;;;;;8.00;3.20;;;21.60;89.50;;;;;;5136282;27;20031;-78
2023/05/06 11:34:22;;;;;;;4.25;2.80;;;21.60;88.60;;;;;;5136227;27;20058;-76
2023/05/06 11:37:05;;;;;;;6.45;3.72;;;21.50;89.40;;;;;;5135505;27;20031;-77
2023/05/06 11:39:33;;;;;;;6.78;3.28;;;21.70;88.30;;;;;;5135047;27;20064;-77
2023/05/06 11:42:04;;;;;;;5.88;3.38;;;21.70;87.60;;;;;;5136289;27;20390;-77
2023/05/06 11:44:32;;;;;;;5.85;2.85;;;21.70;86.80;;;;;;5135117;27;20027;-77
2023/05/06 11:47:04;;;;;;;5.53;3.10;;;21.70;86.50;;;;;;5134662;27;20054;-77
2023/05/06 11:49:39;;;;;;;5.85;3.38;;;21.60;85.30;;;;;;5154226;27;20073;-77
2023/05/06 11:52:05;;;;;;;5.88;2.97;;;21.50;86.10;;;;;;5137615;27;20031;-77
2023/05/06 11:54:34;;;;;;;4.15;2.90;;;21.50;86.10;;;;;;5138143;27;20039;-76
2023/05/06 11:57:00;;;;;;;5.18;2.78;;;21.70;86.60;;;;;;5156669;27;20026;-78
2023/05/06 11:59:29;;;;;;;4.15;2.30;;;21.60;86.50;;;;;;5137918;27;20539;-77
2023/05/06 12:01:57;;;;;;;6.60;3.33;;;21.60;86.10;;;;;;5137945;27;20026;-77
2023/05/06 12:04:23;;;;;;;3.83;2.58;;;21.60;86.60;;;;;;5156584;27;20018;-76
2023/05/06 12:06:48;;;;;;;5.68;2.70;;;21.60;85.40;;;;;;5156358;27;20126;-77
2023/05/06 12:09:14;;;;;;;5.45;2.95;;;21.60;84.90;;;;;;5103639;27;20038;-77
2023/05/06 12:11:42;;;;;;;3.72;2.40;;;21.70;84.80;;;;;;5138053;27;20027;-77
2023/05/06 12:14:09;;;;;;;6.85;3.60;;;21.80;84.40;;;;;;5155899;27;20029;-77
2023/05/06 12:16:36;;;;;;;5.30;2.78;;;21.90;84.30;;;;;;5137841;27;20041;-76
2023/05/06 12:19:02;;;;;;;4.10;2.78;;;21.90;83.90;;;;;;5155864;27;20022;-77
2023/05/06 12:21:29;;;;;;;4.60;2.60;;;21.90;82.90;;;;;;5137650;27;20450;-77
2023/05/06 12:23:59;;;;;;;3.67;2.53;;;22.10;83.30;;;;;;5120160;27;20126;-76
2023/05/06 12:26:30;;;;;;;4.93;2.10;;;22.20;82.30;;;;;;5156331;27;20044;-77
2023/05/06 12:29:10;;;;;;;4.20;2.50;;;22.20;81.90;;;;;;5137654;27;20090;-76
2023/05/06 12:31:36;;;;;;;5.50;2.30;;;22.10;82.10;;;;;;5155951;27;20030;-77
2023/05/06 12:34:02;;;;;;;5.85;2.03;;;22.00;82.60;;;;;;5120621;27;20091;-77
2023/05/06 12:36:28;;;;;;;4.03;2.30;;;22.00;82.80;;;;;;5154930;27;20106;-77